Time;durP1;ratioP1;P1;durP2;ratioP2;P2;SDS_P1;SDS_P2;PMS_P1;PMS_P2;Temp;Humidity;BMP_temperature;BMP_pressure;BME280_temperature;BME280_humidity;BME280_pressure;Samples;Min_cycle;Max_cycle;Signal;HPM_P1;HPM_P2
2023/05/26 00:00:46;;;;;;;0.90;0.90;;;;;;;;;;6213821;23;20178;-87
2023/05/26 00:03:16;;;;;;;1.73;1.63;;;;;;;;;;6214190;23;20216;-87
2023/05/26 00:05:45;;;;;;;2.93;1.37;;;;;;;;;;6214456;23;20180;-87
2023/05/26 00:08:14;;;;;;;3.40;2.17;;;;;;;;;;6214119;23;20209;-87
2023/05/26 00:10:43;;;;;;;4.43;2.07;;;;;;;;;;6215025;23;20205;-87
2023/05/26 00:13:12;;;;;;;2.27;1.17;;;;;;;;;;6214185;23;20187;-87
2023/05/26 00:15:41;;;;;;;6.80;1.83;;;;;;;;;;6214096;23;20171;-87
2023/05/26 00:18:09;;;;;;;1.60;1.03;;;;;;;;;;6214235;23;20265;-87
2023/05/26 00:20:39;;;;;;;2.17;1.30;;;;;;;;;;6214364;23;20194;-87
2023/05/26 00:23:08;;;;;;;6.43;1.90;;;;;;;;;;6214422;23;20200;-87
2023/05/26 00:25:36;;;;;;;3.40;1.63;;;;;;;;;;6213648;23;20178;-87
2023/05/26 00:28:05;;;;;;;10.40;2.73;;;;;;;;;;6214392;23;20252;-87
2023/05/26 00:30:35;;;;;;;5.17;1.83;;;;;;;;;;6214351;23;20284;-86
2023/05/26 00:33:03;;;;;;;7.93;3.43;;;;;;;;;;6213734;23;20177;-87
2023/05/26 00:35:32;;;;;;;6.93;3.07;;;;;;;;;;6214158;23;20185;-87
2023/05/26 00:38:02;;;;;;;8.37;4.00;;;;;;;;;;6213990;23;20177;-87
2023/05/26 00:40:32;;;;;;;2.30;2.10;;;;;;;;;;6213741;23;20194;-84
2023/05/26 00:43:01;;;;;;;5.30;1.37;;;;;;;;;;6213539;23;20214;-85
2023/05/26 00:45:29;;;;;;;4.10;2.50;;;;;;;;;;6213936;23;20174;-84
2023/05/26 00:47:58;;;;;;;4.23;1.97;;;;;;;;;;6213805;23;20274;-84
2023/05/26 00:50:27;;;;;;;6.97;2.73;;;;;;;;;;6213472;23;20220;-85
2023/05/26 00:52:56;;;;;;;11.50;1.27;;;;;;;;;;6213683;23;20179;-84
2023/05/26 00:55:28;;;;;;;7.17;2.30;;;;;;;;;;6213754;23;20192;-84
2023/05/26 00:57:57;;;;;;;0.87;0.87;;;;;;;;;;6213264;23;20177;-84
2023/05/26 01:00:26;;;;;;;5.67;2.17;;;;;;;;;;6213310;23;20201;-84
2023/05/26 01:02:57;;;;;;;1.43;1.43;;;;;;;;;;6213673;23;20178;-85
2023/05/26 01:05:25;;;;;;;4.70;2.40;;;;;;;;;;6213311;23;20166;-85
2023/05/26 01:07:54;;;;;;;3.50;1.90;;;;;;;;;;6214022;23;20190;-84
2023/05/26 01:10:23;;;;;;;2.30;1.60;;;;;;;;;;6187753;23;20171;-84
2023/05/26 01:12:56;;;;;;;1.30;1.30;;;;;;;;;;6215598;23;20179;-84
2023/05/26 01:15:27;;;;;;;0.80;0.80;;;;;;;;;;6214824;23;20174;-84
2023/05/26 01:17:59;;;;;;;0.90;0.90;;;;;;;;;;6215855;23;20170;-85
2023/05/26 01:20:28;;;;;;;2.80;2.60;;;;;;;;;;6215229;23;20203;-85
2023/05/26 01:23:18;;;;;;;12.53;3.07;;;;;;;;;;6215242;23;20199;-84
2023/05/26 01:25:56;;;;;;;1.67;1.30;;;;;;;;;;6178099;23;20174;-85
2023/05/26 01:28:28;;;;;;;1.00;1.00;;;;;;;;;;6215692;23;20273;-84
2023/05/26 01:30:57;;;;;;;1.10;1.10;;;;;;;;;;6214999;23;20178;-85
2023/05/26 01:33:26;;;;;;;10.27;2.13;;;;;;;;;;6215492;23;20176;-84
2023/05/26 01:35:54;;;;;;;2.10;2.00;;;;;;;;;;6215590;23;20178;-87
2023/05/26 01:38:23;;;;;;;0.90;0.90;;;;;;;;;;6215714;23;20197;-84
2023/05/26 01:40:54;;;;;;;0.70;0.70;;;;;;;;;;6215002;23;20193;-85
2023/05/26 01:43:25;;;;;;;0.70;0.70;;;;;;;;;;6215303;23;20216;-85
2023/05/26 01:45:58;;;;;;;2.63;2.30;;;;;;;;;;6215891;23;20167;-85
2023/05/26 01:48:26;;;;;;;1.20;1.20;;;;;;;;;;6215282;23;20342;-84
2023/05/26 01:50:57;;;;;;;0.70;0.70;;;;;;;;;;6215481;23;20203;-85
2023/05/26 01:53:28;;;;;;;10.20;1.60;;;;;;;;;;6215062;23;20174;-85
2023/05/26 01:55:57;;;;;;;1.03;1.03;;;;;;;;;;6214629;23;20175;-84
2023/05/26 01:58:26;;;;;;;1.30;1.30;;;;;;;;;;6215521;23;20189;-84
2023/05/26 02:00:58;;;;;;;1.10;0.87;;;;;;;;;;6214831;23;20191;-84
2023/05/26 02:03:28;;;;;;;10.40;2.07;;;;;;;;;;6214697;23;20177;-85
2023/05/26 02:05:57;;;;;;;0.93;0.93;;;;;;;;;;6214797;23;20269;-87
2023/05/26 02:08:25;;;;;;;5.40;1.50;;;;;;;;;;6215532;23;20184;-88
2023/05/26 02:10:54;;;;;;;2.93;1.43;;;;;;;;;;6215340;23;20170;-88
2023/05/26 02:13:22;;;;;;;7.30;2.77;;;;;;;;;;6214935;23;20205;-88
2023/05/26 02:15:51;;;;;;;24.17;3.20;;;;;;;;;;6215393;23;20244;-87
2023/05/26 02:18:22;;;;;;;0.80;0.80;;;;;;;;;;6215817;23;20190;-88
2023/05/26 02:20:50;;;;;;;1.93;1.83;;;;;;;;;;6214608;23;20208;-88
2023/05/26 02:23:19;;;;;;;4.73;3.37;;;;;;;;;;6215833;23;20179;-88
2023/05/26 02:25:48;;;;;;;12.97;4.87;;;;;;;;;;6215551;23;20196;-87
2023/05/26 02:28:16;;;;;;;2.97;1.80;;;;;;;;;;6215242;23;20198;-88
2023/05/26 02:30:45;;;;;;;9.13;3.40;;;;;;;;;;6215193;23;20189;-88
2023/05/26 02:33:13;;;;;;;2.90;1.27;;;;;;;;;;6215570;23;20174;-88
2023/05/26 02:35:43;;;;;;;2.87;1.47;;;;;;;;;;6216061;23;20177;-88
2023/05/26 02:38:12;;;;;;;2.23;1.70;;;;;;;;;;6214653;23;20231;-88
2023/05/26 02:40:41;;;;;;;4.70;2.80;;;;;;;;;;6215193;23;20228;-88
2023/05/26 02:43:09;;;;;;;18.50;2.77;;;;;;;;;;6215140;23;20210;-88
2023/05/26 02:45:38;;;;;;;6.47;2.60;;;;;;;;;;6215237;23;20180;-88
2023/05/26 02:48:06;;;;;;;1.33;1.33;;;;;;;;;;6215335;23;20184;-86
2023/05/26 02:50:35;;;;;;;6.27;2.17;;;;;;;;;;6215600;23;20197;-88
2023/05/26 02:53:05;;;;;;;1.00;1.00;;;;;;;;;;6214699;23;20201;-85
2023/05/26 02:55:33;;;;;;;11.10;2.97;;;;;;;;;;6214229;23;20273;-85
2023/05/26 02:58:02;;;;;;;8.70;1.70;;;;;;;;;;6215177;23;20189;-85
2023/05/26 03:00:31;;;;;;;2.67;1.87;;;;;;;;;;6214946;23;20202;-88
2023/05/26 03:03:00;;;;;;;10.57;1.60;;;;;;;;;;6215175;23;20185;-87
2023/05/26 03:05:28;;;;;;;7.60;2.53;;;;;;;;;;6215627;23;20177;-88
2023/05/26 03:07:57;;;;;;;7.57;4.30;;;;;;;;;;6215066;23;20177;-88
2023/05/26 03:10:27;;;;;;;0.70;0.70;;;;;;;;;;6213793;23;20359;-84
2023/05/26 03:12:55;;;;;;;2.53;2.33;;;;;;;;;;6214105;23;20182;-85
2023/05/26 03:15:24;;;;;;;1.60;1.60;;;;;;;;;;6215599;23;20173;-88
2023/05/26 03:17:53;;;;;;;15.57;8.83;;;;;;;;;;6214918;23;20200;-88
2023/05/26 03:20:21;;;;;;;1.23;1.23;;;;;;;;;;6215098;23;20215;-88
2023/05/26 03:22:50;;;;;;;1.37;1.30;;;;;;;;;;6215042;23;20177;-88
2023/05/26 03:25:22;;;;;;;1.33;1.30;;;;;;;;;;6215112;23;20180;-88
2023/05/26 03:27:52;;;;;;;4.10;2.37;;;;;;;;;;6214619;23;20231;-88
2023/05/26 03:30:20;;;;;;;5.33;2.97;;;;;;;;;;6215356;23;20172;-88
2023/05/26 03:32:50;;;;;;;11.50;2.97;;;;;;;;;;6214751;23;20167;-88
2023/05/26 03:35:19;;;;;;;4.50;1.47;;;;;;;;;;6214756;23;20170;-88
2023/05/26 03:37:49;;;;;;;6.17;1.87;;;;;;;;;;6215182;23;20198;-88
2023/05/26 03:40:18;;;;;;;5.93;3.27;;;;;;;;;;6215569;23;20196;-88
2023/05/26 03:42:47;;;;;;;1.23;1.23;;;;;;;;;;6214493;23;20217;-87
2023/05/26 03:45:17;;;;;;;4.27;2.07;;;;;;;;;;6214665;23;20180;-87
2023/05/26 03:47:45;;;;;;;9.70;3.50;;;;;;;;;;6214663;23;20179;-88
2023/05/26 03:50:14;;;;;;;1.27;1.27;;;;;;;;;;6214641;23;20181;-85
2023/05/26 03:52:43;;;;;;;2.67;2.30;;;;;;;;;;6213619;23;20170;-84
2023/05/26 03:55:12;;;;;;;2.20;2.03;;;;;;;;;;6214436;23;20174;-85
2023/05/26 03:57:40;;;;;;;2.77;1.40;;;;;;;;;;6214576;23;20184;-85
2023/05/26 04:00:10;;;;;;;2.47;2.03;;;;;;;;;;6214521;23;20192;-85
2023/05/26 04:02:40;;;;;;;2.50;1.93;;;;;;;;;;6213933;23;20193;-85
2023/05/26 04:05:09;;;;;;;9.37;3.00;;;;;;;;;;6214065;23;20174;-85
2023/05/26 04:07:38;;;;;;;6.17;3.50;;;;;;;;;;6213316;23;20222;-85
2023/05/26 04:10:10;;;;;;;5.00;2.03;;;;;;;;;;6213513;23;20205;-85
2023/05/26 04:12:39;;;;;;;6.83;2.60;;;;;;;;;;6214109;23;20186;-85
2023/05/26 04:15:11;;;;;;;7.20;2.93;;;;;;;;;;6214050;23;20185;-84
2023/05/26 04:17:41;;;;;;;11.53;3.60;;;;;;;;;;6213669;23;20204;-85
2023/05/26 04:20:10;;;;;;;2.13;1.43;;;;;;;;;;6214264;23;20176;-85
2023/05/26 04:22:39;;;;;;;8.80;2.90;;;;;;;;;;6213663;23;20186;-85
2023/05/26 04:25:11;;;;;;;2.63;2.20;;;;;;;;;;6213173;23;20170;-85
2023/05/26 04:27:42;;;;;;;3.67;3.37;;;;;;;;;;6213784;23;20266;-85
2023/05/26 04:30:11;;;;;;;6.53;3.37;;;;;;;;;;6213874;23;20177;-85
2023/05/26 04:32:40;;;;;;;16.97;2.77;;;;;;;;;;6213654;23;20175;-85
2023/05/26 04:35:10;;;;;;;1.63;1.10;;;;;;;;;;6213722;23;20174;-85
2023/05/26 04:37:40;;;;;;;3.03;1.33;;;;;;;;;;6213875;23;20177;-85
2023/05/26 04:40:09;;;;;;;2.93;1.63;;;;;;;;;;6214081;23;20252;-84
2023/05/26 04:42:38;;;;;;;2.40;1.37;;;;;;;;;;6213468;23;20225;-85
2023/05/26 04:45:10;;;;;;;8.37;2.90;;;;;;;;;;6215175;23;20177;-84
2023/05/26 04:47:42;;;;;;;2.77;2.03;;;;;;;;;;6216064;23;20264;-83
2023/05/26 04:50:16;;;;;;;2.03;1.60;;;;;;;;;;6215492;23;20261;-85
2023/05/26 04:52:47;;;;;;;3.00;1.77;;;;;;;;;;6216030;23;20212;-85
2023/05/26 04:55:16;;;;;;;6.53;2.43;;;;;;;;;;6215906;23;20181;-85
2023/05/26 04:57:45;;;;;;;7.73;1.80;;;;;;;;;;6215629;23;20174;-86
2023/05/26 05:00:14;;;;;;;2.17;1.93;;;;;;;;;;6215391;23;20171;-85
2023/05/26 05:02:43;;;;;;;2.50;2.37;;;;;;;;;;6215949;23;20183;-85
2023/05/26 05:05:13;;;;;;;10.53;3.57;;;;;;;;;;6215614;23;20166;-84
2023/05/26 05:07:41;;;;;;;5.73;2.50;;;;;;;;;;6215713;23;20178;-86
2023/05/26 05:10:10;;;;;;;5.93;0.80;;;;;;;;;;6215828;23;20174;-85
2023/05/26 05:12:39;;;;;;;31.30;4.73;;;;;;;;;;6215495;23;20173;-85
2023/05/26 05:15:08;;;;;;;5.10;2.10;;;;;;;;;;6215348;23;20185;-85
2023/05/26 05:17:38;;;;;;;9.53;2.80;;;;;;;;;;6216014;23;20441;-85
2023/05/26 05:20:07;;;;;;;11.57;4.50;;;;;;;;;;6215618;23;20170;-85
2023/05/26 05:22:45;;;;;;;4.30;2.17;;;;;;;;;;6215326;23;20193;-86
2023/05/26 05:25:14;;;;;;;5.23;2.00;;;;;;;;;;6215823;23;20170;-85
2023/05/26 05:27:42;;;;;;;4.53;1.97;;;;;;;;;;6215823;23;20236;-85
2023/05/26 05:30:11;;;;;;;2.00;1.90;;;;;;;;;;6215558;23;20179;-85
2023/05/26 05:32:40;;;;;;;3.20;2.57;;;;;;;;;;6215795;23;20171;-85
2023/05/26 05:35:10;;;;;;;6.13;5.50;;;;;;;;;;6215224;23;20166;-85
2023/05/26 05:37:38;;;;;;;3.07;1.70;;;;;;;;;;6216011;23;20249;-85
2023/05/26 05:40:09;;;;;;;13.50;3.30;;;;;;;;;;6214889;23;20178;-85
2023/05/26 05:42:38;;;;;;;6.80;1.30;;;;;;;;;;6215351;23;20210;-84
2023/05/26 05:45:08;;;;;;;3.47;2.23;;;;;;;;;;6215141;23;20167;-85
2023/05/26 05:47:40;;;;;;;9.63;3.80;;;;;;;;;;6214992;23;20170;-85
2023/05/26 05:50:09;;;;;;;6.30;2.93;;;;;;;;;;6215385;23;20206;-85
2023/05/26 05:52:37;;;;;;;7.57;2.87;;;;;;;;;;6215876;23;20186;-85
2023/05/26 05:55:06;;;;;;;5.13;1.97;;;;;;;;;;6215582;23;20189;-84
2023/05/26 05:57:36;;;;;;;1.83;1.73;;;;;;;;;;6214888;23;20175;-84
2023/05/26 06:00:05;;;;;;;10.40;4.10;;;;;;;;;;6215778;23;20170;-84
2023/05/26 06:02:34;;;;;;;9.40;3.37;;;;;;;;;;6215397;23;20205;-84
2023/05/26 06:05:02;;;;;;;1.20;1.20;;;;;;;;;;6215508;23;20253;-84
2023/05/26 06:07:31;;;;;;;15.93;4.33;;;;;;;;;;6215863;23;20179;-84
2023/05/26 06:09:59;;;;;;;15.33;5.47;;;;;;;;;;6216839;23;20182;-84
2023/05/26 06:12:28;;;;;;;16.37;4.90;;;;;;;;;;6214598;23;20166;-84
2023/05/26 06:14:57;;;;;;;11.97;2.80;;;;;;;;;;6215915;23;20174;-84
2023/05/26 06:17:26;;;;;;;8.60;3.93;;;;;;;;;;6215575;23;20182;-84
2023/05/26 06:19:55;;;;;;;7.70;2.33;;;;;;;;;;6215744;23;20178;-84
2023/05/26 06:22:23;;;;;;;7.60;3.33;;;;;;;;;;6214953;23;20240;-83
2023/05/26 06:24:52;;;;;;;6.97;3.83;;;;;;;;;;6215118;23;20182;-83
2023/05/26 06:27:20;;;;;;;7.70;2.73;;;;;;;;;;6215219;23;20195;-84
2023/05/26 06:29:48;;;;;;;12.23;4.50;;;;;;;;;;6214749;23;20171;-83
2023/05/26 06:32:18;;;;;;;30.43;3.83;;;;;;;;;;6215585;23;20171;-83
2023/05/26 06:34:47;;;;;;;8.47;3.10;;;;;;;;;;6216196;23;20174;-84
2023/05/26 06:37:15;;;;;;;14.93;3.87;;;;;;;;;;6215372;23;20167;-83
2023/05/26 06:39:44;;;;;;;5.97;3.00;;;;;;;;;;6216097;23;20257;-84
2023/05/26 06:42:12;;;;;;;5.73;2.17;;;;;;;;;;6214931;23;20202;-83
2023/05/26 06:44:41;;;;;;;4.33;3.27;;;;;;;;;;6215228;23;20171;-84
2023/05/26 06:47:10;;;;;;;25.33;5.93;;;;;;;;;;6215154;23;20182;-83
2023/05/26 06:49:40;;;;;;;11.73;3.10;;;;;;;;;;6215333;23;20197;-83
2023/05/26 06:52:09;;;;;;;10.13;2.70;;;;;;;;;;6215643;23;20261;-83
2023/05/26 06:54:38;;;;;;;4.07;2.33;;;;;;;;;;6216672;23;20173;-83
2023/05/26 06:57:07;;;;;;;3.93;3.07;;;;;;;;;;6216213;23;20178;-83
2023/05/26 06:59:35;;;;;;;10.33;3.80;;;;;;;;;;6216193;23;20167;-82
2023/05/26 07:02:07;;;;;;;12.57;3.27;;;;;;;;;;6213313;23;20242;-83
2023/05/26 07:04:36;;;;;;;6.63;2.63;;;;;;;;;;6213307;23;20178;-85
2023/05/26 07:07:06;;;;;;;5.40;2.60;;;;;;;;;;6214517;23;20210;-83
2023/05/26 07:09:37;;;;;;;8.53;3.10;;;;;;;;;;6214410;23;20274;-83
2023/05/26 07:12:09;;;;;;;8.63;3.30;;;;;;;;;;6213469;23;20182;-82
2023/05/26 07:14:37;;;;;;;5.80;2.40;;;;;;;;;;6215641;23;20175;-82
2023/05/26 07:17:06;;;;;;;5.17;2.53;;;;;;;;;;6215349;23;20178;-82
2023/05/26 07:19:35;;;;;;;9.90;3.10;;;;;;;;;;6216531;23;20170;-83
2023/05/26 07:22:03;;;;;;;12.77;3.97;;;;;;;;;;6212447;23;20180;-85
2023/05/26 07:24:37;;;;;;;5.00;2.67;;;;;;;;;;6212898;23;20191;-84
2023/05/26 07:27:10;;;;;;;12.63;4.93;;;;;;;;;;6209080;23;20199;-85
2023/05/26 07:29:45;;;;;;;8.37;3.20;;;;;;;;;;6214032;23;20181;-83
2023/05/26 07:32:19;;;;;;;5.50;3.40;;;;;;;;;;6208754;23;20202;-85
2023/05/26 07:34:53;;;;;;;4.77;3.07;;;;;;;;;;6211889;23;20212;-84
2023/05/26 07:37:28;;;;;;;8.70;3.17;;;;;;;;;;6213573;23;20180;-86
2023/05/26 07:39:58;;;;;;;8.07;3.03;;;;;;;;;;6215895;23;20222;-84
2023/05/26 07:42:30;;;;;;;7.63;3.57;;;;;;;;;;6215073;23;20204;-86
2023/05/26 07:45:02;;;;;;;9.50;3.70;;;;;;;;;;6216715;23;20208;-84
2023/05/26 07:47:31;;;;;;;6.73;3.20;;;;;;;;;;6217100;23;20183;-85
2023/05/26 07:50:00;;;;;;;12.43;3.90;;;;;;;;;;6216243;23;20175;-85
2023/05/26 07:52:31;;;;;;;11.70;4.53;;;;;;;;;;6214145;23;20205;-83
2023/05/26 07:55:03;;;;;;;12.33;3.80;;;;;;;;;;6187963;23;20230;-85
2023/05/26 07:57:33;;;;;;;5.60;2.23;;;;;;;;;;6213638;23;20177;-84
2023/05/26 08:00:06;;;;;;;17.10;4.87;;;;;;;;;;6214618;23;20274;-85
2023/05/26 08:02:35;;;;;;;6.03;2.07;;;;;;;;;;6216379;23;20179;-86
2023/05/26 08:05:07;;;;;;;8.60;3.60;;;;;;;;;;6214413;23;20271;-85
2023/05/26 08:07:36;;;;;;;7.03;2.87;;;;;;;;;;6214136;23;20176;-84
2023/05/26 08:10:12;;;;;;;7.60;2.93;;;;;;;;;;6212873;23;20179;-83
2023/05/26 08:12:41;;;;;;;5.67;2.63;;;;;;;;;;6212115;23;20184;-87
2023/05/26 08:15:16;;;;;;;5.97;3.27;;;;;;;;;;6213209;23;20168;-85
2023/05/26 08:17:48;;;;;;;15.07;4.70;;;;;;;;;;6214351;23;20181;-85
2023/05/26 08:20:24;;;;;;;13.10;4.17;;;;;;;;;;6210023;23;20214;-85
2023/05/26 08:22:58;;;;;;;4.47;3.10;;;;;;;;;;6214815;23;20176;-85
2023/05/26 08:25:42;;;;;;;16.23;4.90;;;;;;;;;;6214322;23;20207;-86
2023/05/26 08:28:12;;;;;;;8.13;3.63;;;;;;;;;;6210753;23;20192;-85
2023/05/26 08:30:45;;;;;;;6.60;2.33;;;;;;;;;;6213307;23;20221;-85
2023/05/26 08:33:15;;;;;;;8.60;3.27;;;;;;;;;;6215807;23;20204;-86
2023/05/26 08:35:52;;;;;;;10.03;4.70;;;;;;;;;;6216305;23;20185;-84
2023/05/26 08:38:25;;;;;;;6.80;3.13;;;;;;;;;;6212666;23;20175;-84
2023/05/26 08:40:57;;;;;;;8.70;4.03;;;;;;;;;;6212589;23;20214;-84
2023/05/26 08:43:34;;;;;;;12.00;4.10;;;;;;;;;;6214975;23;20205;-86
2023/05/26 08:46:18;;;;;;;8.10;3.37;;;;;;;;;;6214165;23;20315;-86
2023/05/26 08:48:52;;;;;;;4.23;3.83;;;;;;;;;;6211493;23;20194;-84
2023/05/26 08:51:40;;;;;;;7.63;2.47;;;;;;;;;;6209513;23;20176;-85
2023/05/26 08:57:41;;;;;;;8.23;4.00;;;;;;;;;;6197729;23;20236;-86
2023/05/26 09:00:12;;;;;;;7.20;3.67;;;;;;;;;;6210567;23;20175;-88
2023/05/26 09:02:47;;;;;;;9.43;3.97;;;;;;;;;;6211006;23;20189;-87
2023/05/26 09:05:16;;;;;;;10.57;3.63;;;;;;;;;;6184800;23;20200;-87
2023/05/26 09:07:47;;;;;;;5.27;3.33;;;;;;;;;;6210955;23;20237;-85
2023/05/26 09:10:35;;;;;;;11.83;5.27;;;;;;;;;;6211206;23;20182;-86
2023/05/26 09:13:12;;;;;;;8.23;3.00;;;;;;;;;;6212282;23;20235;-85
2023/05/26 09:15:53;;;;;;;5.93;2.73;;;;;;;;;;6211606;23;20261;-85
2023/05/26 09:18:51;;;;;;;5.67;2.83;;;;;;;;;;6214627;23;20178;-86
2023/05/26 09:21:22;;;;;;;7.83;3.77;;;;;;;;;;6211513;23;20197;-86
2023/05/26 09:23:55;;;;;;;7.63;3.20;;;;;;;;;;6213891;23;20206;-88
2023/05/26 09:26:30;;;;;;;9.40;4.00;;;;;;;;;;6215979;23;20181;-84
2023/05/26 09:29:00;;;;;;;4.73;2.40;;;;;;;;;;6210063;23;20189;-89
2023/05/26 09:31:41;;;;;;;10.23;3.57;;;;;;;;;;6217025;23;20178;-88
2023/05/26 09:34:17;;;;;;;10.37;3.43;;;;;;;;;;6218020;23;20220;-86
2023/05/26 09:36:46;;;;;;;1.20;1.10;;;;;;;;;;6215467;23;20212;-84
2023/05/26 09:39:18;;;;;;;10.93;3.63;;;;;;;;;;6216626;23;20227;-84
2023/05/26 09:41:51;;;;;;;8.87;3.17;;;;;;;;;;6219385;23;20177;-85
2023/05/26 09:44:23;;;;;;;6.63;2.77;;;;;;;;;;6219579;23;20205;-85
2023/05/26 09:46:54;;;;;;;7.57;3.27;;;;;;;;;;6217350;23;20177;-84
2023/05/26 09:49:25;;;;;;;7.40;3.53;;;;;;;;;;6214885;23;20283;-85
2023/05/26 09:51:55;;;;;;;13.90;3.33;;;;;;;;;;6214361;23;20173;-82
2023/05/26 09:54:40;;;;;;;12.73;4.40;;;;;;;;;;6215634;23;20188;-82
2023/05/26 09:57:10;;;;;;;5.90;1.93;;;;;;;;;;6217213;23;20289;-82
2023/05/26 09:59:46;;;;;;;4.57;3.13;;;;;;;;;;6212688;23;20178;-82
2023/05/26 10:02:23;;;;;;;4.23;2.10;;;;;;;;;;6211591;23;20201;-82
2023/05/26 10:04:55;;;;;;;7.27;3.40;;;;;;;;;;6213911;23;20194;-82
2023/05/26 10:07:35;;;;;;;7.40;3.13;;;;;;;;;;6213957;23;20213;-83
2023/05/26 10:10:08;;;;;;;6.00;2.90;;;;;;;;;;6215561;23;20286;-83
2023/05/26 10:12:37;;;;;;;7.73;2.97;;;;;;;;;;6217329;23;20205;-82
2023/05/26 10:15:12;;;;;;;3.17;2.20;;;;;;;;;;6216749;23;20196;-82
2023/05/26 10:17:42;;;;;;;12.93;3.27;;;;;;;;;;6216940;23;20170;-82
2023/05/26 10:20:11;;;;;;;6.57;2.67;;;;;;;;;;6215636;23;20174;-84
2023/05/26 10:22:48;;;;;;;4.43;2.53;;;;;;;;;;6215917;23;20209;-84
2023/05/26 10:25:24;;;;;;;3.43;2.07;;;;;;;;;;6215370;23;20224;-83
2023/05/26 10:27:58;;;;;;;11.33;3.53;;;;;;;;;;6214320;23;20205;-83
2023/05/26 10:30:29;;;;;;;9.30;1.97;;;;;;;;;;6215431;23;20261;-84
2023/05/26 10:33:10;;;;;;;4.13;1.63;;;;;;;;;;6214332;23;20254;-84
2023/05/26 10:35:39;;;;;;;2.97;1.63;;;;;;;;;;6214880;23;20170;-83
2023/05/26 10:38:13;;;;;;;6.13;2.57;;;;;;;;;;6215082;23;20175;-83
2023/05/26 10:40:45;;;;;;;11.20;2.87;;;;;;;;;;6214154;23;20224;-83
2023/05/26 10:43:17;;;;;;;6.63;2.40;;;;;;;;;;6214071;23;20214;-83
2023/05/26 10:45:46;;;;;;;4.97;2.50;;;;;;;;;;6213508;23;20214;-83
2023/05/26 10:48:19;;;;;;;9.60;3.40;;;;;;;;;;6213516;23;20232;-83
2023/05/26 10:51:05;;;;;;;11.50;2.67;;;;;;;;;;6213282;23;20236;-83
2023/05/26 10:53:51;;;;;;;4.27;2.40;;;;;;;;;;6213962;23;20177;-83
2023/05/26 10:56:25;;;;;;;13.40;3.90;;;;;;;;;;6214073;23;20170;-83
2023/05/26 10:58:58;;;;;;;9.33;3.30;;;;;;;;;;6213180;23;20193;-84
2023/05/26 11:01:30;;;;;;;7.50;2.93;;;;;;;;;;6213318;23;20181;-83
2023/05/26 11:04:09;;;;;;;8.17;2.80;;;;;;;;;;6213502;23;20174;-83
2023/05/26 11:06:48;;;;;;;4.40;2.50;;;;;;;;;;6213399;23;20249;-84
2023/05/26 11:09:17;;;;;;;9.37;2.70;;;;;;;;;;6213017;23;20177;-82
2023/05/26 11:11:54;;;;;;;4.23;2.23;;;;;;;;;;6213244;23;20261;-83
2023/05/26 11:14:27;;;;;;;3.10;2.33;;;;;;;;;;6214114;23;20173;-83
2023/05/26 11:16:57;;;;;;;2.10;1.90;;;;;;;;;;6213503;23;20228;-82
2023/05/26 11:19:32;;;;;;;10.07;2.80;;;;;;;;;;6212955;23;20177;-83
2023/05/26 11:22:08;;;;;;;6.37;2.03;;;;;;;;;;6213357;23;20202;-86
2023/05/26 11:24:37;;;;;;;4.43;2.60;;;;;;;;;;6214177;23;20182;-87
2023/05/26 11:27:26;;;;;;;4.03;2.70;;;;;;;;;;6215085;23;20277;-87
2023/05/26 11:30:01;;;;;;;5.47;2.27;;;;;;;;;;6212655;23;20169;-88
2023/05/26 11:32:36;;;;;;;5.93;2.47;;;;;;;;;;6211180;23;20170;-85
2023/05/26 11:35:24;;;;;;;9.77;4.10;;;;;;;;;;6211376;23;20167;-83
2023/05/26 11:37:56;;;;;;;7.07;2.63;;;;;;;;;;6210920;23;20277;-84
2023/05/26 11:40:26;;;;;;;6.70;3.20;;;;;;;;;;6216471;23;20170;-92
2023/05/26 11:42:57;;;;;;;4.13;1.97;;;;;;;;;;6217243;23;20215;-90
2023/05/26 11:45:27;;;;;;;14.47;2.83;;;;;;;;;;6215801;23;20198;-90
2023/05/26 11:47:57;;;;;;;3.10;2.17;;;;;;;;;;6215503;23;20202;-87
2023/05/26 11:50:32;;;;;;;7.87;2.90;;;;;;;;;;6217080;23;20249;-89
2023/05/26 11:53:01;;;;;;;1.97;1.37;;;;;;;;;;6216187;23;20177;-88
2023/05/26 11:55:29;;;;;;;10.10;2.83;;;;;;;;;;6213068;23;20166;-88
2023/05/26 11:57:58;;;;;;;3.27;2.10;;;;;;;;;;6211280;23;20251;-89
2023/05/26 12:00:28;;;;;;;4.63;2.20;;;;;;;;;;6210988;23;20180;-89
2023/05/26 12:02:56;;;;;;;6.97;3.13;;;;;;;;;;6217435;23;20265;-86
2023/05/26 12:05:28;;;;;;;5.40;2.37;;;;;;;;;;6215050;23;20185;-89
2023/05/26 12:08:04;;;;;;;7.10;2.40;;;;;;;;;;6213695;23;20167;-87
2023/05/26 12:10:33;;;;;;;9.67;2.67;;;;;;;;;;6214752;23;20176;-88
2023/05/26 12:13:03;;;;;;;5.87;2.80;;;;;;;;;;6210360;23;20228;-87
2023/05/26 12:15:37;;;;;;;5.53;2.87;;;;;;;;;;6212402;23;20232;-88
2023/05/26 12:18:11;;;;;;;2.23;1.50;;;;;;;;;;6216196;23;20174;-86
2023/05/26 12:20:42;;;;;;;9.40;3.00;;;;;;;;;;6210924;23;20210;-91
2023/05/26 12:23:24;;;;;;;3.17;2.30;;;;;;;;;;6212949;23;20174;-87
2023/05/26 12:25:53;;;;;;;17.77;4.23;;;;;;;;;;6209730;23;20193;-82
2023/05/26 12:28:21;;;;;;;2.47;1.73;;;;;;;;;;6210189;23;20221;-84
2023/05/26 12:30:50;;;;;;;2.43;1.80;;;;;;;;;;6210230;23;20172;-83
2023/05/26 12:33:19;;;;;;;3.93;2.30;;;;;;;;;;6212305;23;20181;-87
2023/05/26 12:35:48;;;;;;;7.97;2.03;;;;;;;;;;6211987;23;20251;-86
2023/05/26 12:38:18;;;;;;;6.53;2.70;;;;;;;;;;6210473;23;20174;-89
2023/05/26 12:40:46;;;;;;;5.57;2.70;;;;;;;;;;6210238;23;20244;-86
2023/05/26 12:43:16;;;;;;;16.57;2.63;;;;;;;;;;6210553;23;20209;-90
2023/05/26 12:45:45;;;;;;;2.33;2.13;;;;;;;;;;6212988;23;20197;-87
2023/05/26 12:48:13;;;;;;;10.67;3.03;;;;;;;;;;6216413;23;20174;-89
2023/05/26 12:50:42;;;;;;;4.37;2.63;;;;;;;;;;6217217;23;20210;-88
2023/05/26 12:53:11;;;;;;;5.00;2.10;;;;;;;;;;6215065;23;20171;-86
2023/05/26 12:55:41;;;;;;;9.37;2.83;;;;;;;;;;6215065;23;20176;-87
2023/05/26 12:58:11;;;;;;;4.57;3.10;;;;;;;;;;6212584;23;20202;-87
2023/05/26 13:00:39;;;;;;;3.10;1.37;;;;;;;;;;6212028;23;20179;-93
2023/05/26 13:03:09;;;;;;;4.50;2.13;;;;;;;;;;6211661;23;20181;-89
2023/05/26 13:05:38;;;;;;;5.90;2.87;;;;;;;;;;6211714;23;20201;-91
2023/05/26 13:08:07;;;;;;;8.47;2.80;;;;;;;;;;6215934;23;20174;-90
2023/05/26 13:10:35;;;;;;;1.57;1.13;;;;;;;;;;6218662;23;20170;-91
2023/05/26 13:13:05;;;;;;;6.50;2.27;;;;;;;;;;6218971;23;20183;-89
2023/05/26 13:15:34;;;;;;;10.47;2.40;;;;;;;;;;6216217;23;20181;-91
2023/05/26 13:18:02;;;;;;;5.57;2.73;;;;;;;;;;6215991;23;20178;-93
2023/05/26 13:20:31;;;;;;;8.00;2.90;;;;;;;;;;6214321;23;20178;-82
2023/05/26 13:23:00;;;;;;;24.73;6.50;;;;;;;;;;6210491;23;20185;-82
2023/05/26 13:25:29;;;;;;;6.13;2.77;;;;;;;;;;6212033;23;20241;-82
2023/05/26 13:27:58;;;;;;;9.13;4.83;;;;;;;;;;6211232;23;20187;-82
2023/05/26 13:30:28;;;;;;;2.90;2.13;;;;;;;;;;6211590;23;20190;-82
2023/05/26 13:32:57;;;;;;;1.67;1.40;;;;;;;;;;6210987;23;20244;-84
2023/05/26 13:35:26;;;;;;;7.73;2.90;;;;;;;;;;6211086;23;20182;-83
2023/05/26 13:37:55;;;;;;;6.63;1.40;;;;;;;;;;6211459;23;20194;-83
2023/05/26 13:40:23;;;;;;;1.90;1.80;;;;;;;;;;6211185;23;20171;-83
2023/05/26 13:42:52;;;;;;;9.83;3.23;;;;;;;;;;6210257;23;20179;-83
2023/05/26 13:45:21;;;;;;;12.63;3.03;;;;;;;;;;6212066;23;20181;-82
2023/05/26 13:47:51;;;;;;;5.17;1.80;;;;;;;;;;6211154;23;20194;-84
2023/05/26 13:50:20;;;;;;;8.57;2.90;;;;;;;;;;6210813;23;20174;-83
2023/05/26 13:52:49;;;;;;;8.90;2.50;;;;;;;;;;6212718;23;20175;-83
2023/05/26 13:55:18;;;;;;;5.70;2.90;;;;;;;;;;6212463;23;20265;-83
2023/05/26 13:57:47;;;;;;;7.50;4.17;;;;;;;;;;6212283;23;20204;-82
2023/05/26 14:00:15;;;;;;;7.63;2.50;;;;;;;;;;6210625;23;20182;-82
2023/05/26 14:02:45;;;;;;;7.30;3.20;;;;;;;;;;6211099;23;20266;-82
2023/05/26 14:05:15;;;;;;;4.90;2.50;;;;;;;;;;6209766;23;20166;-82
2023/05/26 14:07:44;;;;;;;7.23;3.30;;;;;;;;;;6210989;23;20186;-89
2023/05/26 14:10:13;;;;;;;4.60;2.33;;;;;;;;;;6212015;23;20237;-91
2023/05/26 14:12:41;;;;;;;6.90;3.10;;;;;;;;;;6211624;23;20179;-89
2023/05/26 14:15:10;;;;;;;7.20;2.40;;;;;;;;;;6214295;23;20178;-92
2023/05/26 14:17:39;;;;;;;7.63;1.77;;;;;;;;;;6215189;23;20175;-94
2023/05/26 14:20:08;;;;;;;6.20;2.50;;;;;;;;;;6213694;23;20197;-90
2023/05/26 14:22:39;;;;;;;5.43;1.80;;;;;;;;;;6217741;23;20174;-93
2023/05/26 14:25:08;;;;;;;9.40;2.63;;;;;;;;;;6216293;23;20233;-93
2023/05/26 14:27:38;;;;;;;5.23;2.40;;;;;;;;;;6215554;23;20233;-92
2023/05/26 14:30:09;;;;;;;12.97;4.57;;;;;;;;;;6215251;23;20170;-94
2023/05/26 14:32:37;;;;;;;2.77;2.60;;;;;;;;;;6213598;23;20183;-92
2023/05/26 14:35:07;;;;;;;8.97;3.70;;;;;;;;;;6211117;23;20178;-91
2023/05/26 14:37:44;;;;;;;4.60;2.33;;;;;;;;;;6212791;23;20216;-93
2023/05/26 14:40:14;;;;;;;3.97;1.93;;;;;;;;;;6213660;23;20178;-94
2023/05/26 14:42:48;;;;;;;16.53;3.57;;;;;;;;;;6215273;23;20185;-93
2023/05/26 14:45:17;;;;;;;7.30;2.80;;;;;;;;;;6217439;23;20321;-91
2023/05/26 14:47:46;;;;;;;7.03;2.90;;;;;;;;;;6215127;23;20200;-92
2023/05/26 14:50:15;;;;;;;8.13;3.40;;;;;;;;;;6214174;23;20178;-90
2023/05/26 14:52:52;;;;;;;5.73;2.70;;;;;;;;;;6213502;23;20174;-88
2023/05/26 14:55:23;;;;;;;7.47;2.73;;;;;;;;;;6213782;23;20174;-90
2023/05/26 14:57:57;;;;;;;10.13;2.67;;;;;;;;;;6212852;23;20175;-88
2023/05/26 15:00:25;;;;;;;4.47;2.50;;;;;;;;;;6212700;23;20179;-89
2023/05/26 15:02:54;;;;;;;7.93;4.00;;;;;;;;;;6213099;23;20179;-88
2023/05/26 15:05:23;;;;;;;4.50;2.47;;;;;;;;;;6214463;23;20175;-89